sensor_id;sensor_type;location;lat;lon;timestamp;temperature;humidity
6978;DHT22;3529;53.244;10.414;2022-09-19T00:01:59;9.80;99.90
6978;DHT22;3529;53.244;10.414;2022-09-19T00:04:32;9.90;99.90
6978;DHT22;3529;53.244;10.414;2022-09-19T00:06:58;9.90;99.90
6978;DHT22;3529;53.244;10.414;2022-09-19T00:09:27;9.90;99.90
6978;DHT22;3529;53.244;10.414;2022-09-19T00:11:53;9.90;99.90
6978;DHT22;3529;53.244;10.414;2022-09-19T00:14:22;9.90;99.90
6978;DHT22;3529;53.244;10.414;2022-09-19T00:16:52;9.90;99.90
6978;DHT22;3529;53.244;10.414;2022-09-19T00:19:19;9.90;99.90
6978;DHT22;3529;53.244;10.414;2022-09-19T00:21:47;9.90;99.90
6978;DHT22;3529;53.244;10.414;2022-09-19T00:24:18;9.80;99.90
6978;DHT22;3529;53.244;10.414;2022-09-19T00:27:06;9.90;99.90
6978;DHT22;3529;53.244;10.414;2022-09-19T00:29:33;9.80;99.90
6978;DHT22;3529;53.244;10.414;2022-09-19T00:31:59;9.80;99.90
6978;DHT22;3529;53.244;10.414;2022-09-19T00:34:25;9.80;99.90
6978;DHT22;3529;53.244;10.414;2022-09-19T00:36:51;9.80;99.90
6978;DHT22;3529;53.244;10.414;2022-09-19T00:39:18;9.80;99.90
6978;DHT22;3529;53.244;10.414;2022-09-19T00:41:45;9.80;99.90
6978;DHT22;3529;53.244;10.414;2022-09-19T00:47:07;9.70;99.90
6978;DHT22;3529;53.244;10.414;2022-09-19T00:49:41;9.70;99.90
6978;DHT22;3529;53.244;10.414;2022-09-19T00:52:13;9.60;99.90
6978;DHT22;3529;53.244;10.414;2022-09-19T00:54:43;9.60;99.90
6978;DHT22;3529;53.244;10.414;2022-09-19T00:57:12;9.50;99.90
6978;DHT22;3529;53.244;10.414;2022-09-19T00:59:42;9.40;99.90
6978;DHT22;3529;53.244;10.414;2022-09-19T01:02:09;9.30;99.90
6978;DHT22;3529;53.244;10.414;2022-09-19T01:04:36;9.20;99.90
6978;DHT22;3529;53.244;10.414;2022-09-19T01:12:35;9.00;99.90
6978;DHT22;3529;53.244;10.414;2022-09-19T01:15:21;9.00;99.90
6978;DHT22;3529;53.244;10.414;2022-09-19T01:17:52;9.00;99.90
6978;DHT22;3529;53.244;10.414;2022-09-19T01:31:10;8.70;99.90
6978;DHT22;3529;53.244;10.414;2022-09-19T01:34:19;8.70;99.90
6978;DHT22;3529;53.244;10.414;2022-09-19T01:37:12;8.70;99.90
6978;DHT22;3529;53.244;10.414;2022-09-19T01:39:41;8.70;99.90
6978;DHT22;3529;53.244;10.414;2022-09-19T01:42:12;8.60;99.90
6978;DHT22;3529;53.244;10.414;2022-09-19T01:44:37;8.60;99.90
6978;DHT22;3529;53.244;10.414;2022-09-19T01:49:51;8.60;99.90
6978;DHT22;3529;53.244;10.414;2022-09-19T01:58:07;8.50;99.90
6978;DHT22;3529;53.244;10.414;2022-09-19T02:00:38;8.50;99.90
6978;DHT22;3529;53.244;10.414;2022-09-19T02:03:26;8.40;99.90
6978;DHT22;3529;53.244;10.414;2022-09-19T02:11:13;8.40;99.90
6978;DHT22;3529;53.244;10.414;2022-09-19T02:13:43;8.40;99.90
6978;DHT22;3529;53.244;10.414;2022-09-19T02:16:24;8.40;99.90
6978;DHT22;3529;53.244;10.414;2022-09-19T02:18:57;8.40;99.90
6978;DHT22;3529;53.244;10.414;2022-09-19T02:21:30;8.30;99.90
6978;DHT22;3529;53.244;10.414;2022-09-19T02:23:59;8.30;99.90
6978;DHT22;3529;53.244;10.414;2022-09-19T02:26:32;8.30;99.90
6978;DHT22;3529;53.244;10.414;2022-09-19T02:28:59;8.30;99.90
6978;DHT22;3529;53.244;10.414;2022-09-19T02:31:27;8.20;99.90
6978;DHT22;3529;53.244;10.414;2022-09-19T02:33:55;8.20;99.90
6978;DHT22;3529;53.244;10.414;2022-09-19T02:39:07;8.10;99.90
6978;DHT22;3529;53.244;10.414;2022-09-19T02:44:31;8.20;99.90
6978;DHT22;3529;53.244;10.414;2022-09-19T02:49:57;8.20;99.90
6978;DHT22;3529;53.244;10.414;2022-09-19T02:52:28;8.20;99.90
6978;DHT22;3529;53.244;10.414;2022-09-19T02:55:05;8.20;99.90
6978;DHT22;3529;53.244;10.414;2022-09-19T02:57:36;8.20;99.90
6978;DHT22;3529;53.244;10.414;2022-09-19T03:00:03;8.20;99.90
6978;DHT22;3529;53.244;10.414;2022-09-19T03:02:36;8.10;99.90
6978;DHT22;3529;53.244;10.414;2022-09-19T03:05:08;8.10;99.90
6978;DHT22;3529;53.244;10.414;2022-09-19T03:07:42;8.20;99.90
6978;DHT22;3529;53.244;10.414;2022-09-19T03:10:13;8.20;99.90
6978;DHT22;3529;53.244;10.414;2022-09-19T03:13:06;8.10;99.90
6978;DHT22;3529;53.244;10.414;2022-09-19T03:18:11;8.10;99.90
6978;DHT22;3529;53.244;10.414;2022-09-19T03:20:39;8.00;99.90
6978;DHT22;3529;53.244;10.414;2022-09-19T03:23:06;8.00;99.90
6978;DHT22;3529;53.244;10.414;2022-09-19T03:25:33;8.00;99.90
6978;DHT22;3529;53.244;10.414;2022-09-19T03:27:58;7.90;99.90
6978;DHT22;3529;53.244;10.414;2022-09-19T03:30:24;7.90;99.90
6978;DHT22;3529;53.244;10.414;2022-09-19T03:32:50;7.90;99.90
6978;DHT22;3529;53.244;10.414;2022-09-19T03:35:16;7.90;99.90
6978;DHT22;3529;53.244;10.414;2022-09-19T03:37:43;7.90;99.90
6978;DHT22;3529;53.244;10.414;2022-09-19T03:40:09;7.90;99.90
6978;DHT22;3529;53.244;10.414;2022-09-19T03:42:36;7.80;99.90
6978;DHT22;3529;53.244;10.414;2022-09-19T03:45:04;7.90;99.90
6978;DHT22;3529;53.244;10.414;2022-09-19T03:47:30;7.80;99.90
6978;DHT22;3529;53.244;10.414;2022-09-19T03:49:55;7.90;99.90
6978;DHT22;3529;53.244;10.414;2022-09-19T03:52:23;7.90;99.90
6978;DHT22;3529;53.244;10.414;2022-09-19T03:54:49;7.90;99.90
6978;DHT22;3529;53.244;10.414;2022-09-19T03:57:15;7.90;99.90
6978;DHT22;3529;53.244;10.414;2022-09-19T03:59:41;7.90;99.90
6978;DHT22;3529;53.244;10.414;2022-09-19T04:02:09;7.80;99.90
6978;DHT22;3529;53.244;10.414;2022-09-19T04:04:35;7.80;99.90
6978;DHT22;3529;53.244;10.414;2022-09-19T04:07:02;7.70;99.90
6978;DHT22;3529;53.244;10.414;2022-09-19T04:09:28;7.70;99.90
6978;DHT22;3529;53.244;10.414;2022-09-19T04:11:54;7.60;99.90
6978;DHT22;3529;53.244;10.414;2022-09-19T04:14:22;7.60;99.90
6978;DHT22;3529;53.244;10.414;2022-09-19T04:16:48;7.50;99.90
6978;DHT22;3529;53.244;10.414;2022-09-19T04:19:14;7.50;99.90
6978;DHT22;3529;53.244;10.414;2022-09-19T04:21:41;7.50;99.90
6978;DHT22;3529;53.244;10.414;2022-09-19T04:24:12;7.40;99.90
6978;DHT22;3529;53.244;10.414;2022-09-19T04:26:38;7.40;99.90
6978;DHT22;3529;53.244;10.414;2022-09-19T04:29:05;7.40;99.90
6978;DHT22;3529;53.244;10.414;2022-09-19T04:31:32;7.40;99.90
6978;DHT22;3529;53.244;10.414;2022-09-19T04:34:04;7.40;99.90
6978;DHT22;3529;53.244;10.414;2022-09-19T04:36:29;7.40;99.90
6978;DHT22;3529;53.244;10.414;2022-09-19T04:38:58;7.40;99.90
6978;DHT22;3529;53.244;10.414;2022-09-19T04:41:32;7.40;99.90
6978;DHT22;3529;53.244;10.414;2022-09-19T04:43:58;7.40;99.90
6978;DHT22;3529;53.244;10.414;2022-09-19T04:46:24;7.40;99.90
6978;DHT22;3529;53.244;10.414;2022-09-19T04:48:50;7.40;99.90
6978;DHT22;3529;53.244;10.414;2022-09-19T04:51:18;7.40;99.90
6978;DHT22;3529;53.244;10.414;2022-09-19T04:53:44;7.40;99.90
6978;DHT22;3529;53.244;10.414;2022-09-19T06:35:56;9.90;99.90
6978;DHT22;3529;53.244;10.414;2022-09-19T06:38:22;10.00;99.90
6978;DHT22;3529;53.244;10.414;2022-09-19T06:40:48;10.10;99.90
6978;DHT22;3529;53.244;10.414;2022-09-19T06:43:13;10.10;99.90
6978;DHT22;3529;53.244;10.414;2022-09-19T06:45:39;10.20;99.90
6978;DHT22;3529;53.244;10.414;2022-09-19T06:48:07;10.30;99.90
6978;DHT22;3529;53.244;10.414;2022-09-19T06:50:33;10.40;99.90
6978;DHT22;3529;53.244;10.414;2022-09-19T06:52:59;10.50;99.90
6978;DHT22;3529;53.244;10.414;2022-09-19T06:55:25;10.60;99.90
6978;DHT22;3529;53.244;10.414;2022-09-19T06:58:01;10.70;99.90
6978;DHT22;3529;53.244;10.414;2022-09-19T07:00:30;10.70;99.90
6978;DHT22;3529;53.244;10.414;2022-09-19T07:03:13;10.80;99.90
6978;DHT22;3529;53.244;10.414;2022-09-19T07:05:40;10.90;99.90
6978;DHT22;3529;53.244;10.414;2022-09-19T07:08:09;11.20;99.90
6978;DHT22;3529;53.244;10.414;2022-09-19T07:10:35;11.40;99.90
6978;DHT22;3529;53.244;10.414;2022-09-19T07:13:03;11.60;99.90
6978;DHT22;3529;53.244;10.414;2022-09-19T07:15:32;11.70;99.90
6978;DHT22;3529;53.244;10.414;2022-09-19T07:17:58;11.80;99.90
6978;DHT22;3529;53.244;10.414;2022-09-19T07:20:25;11.80;99.90
6978;DHT22;3529;53.244;10.414;2022-09-19T07:23:02;11.80;99.90
6978;DHT22;3529;53.244;10.414;2022-09-19T07:25:29;11.70;99.90
6978;DHT22;3529;53.244;10.414;2022-09-19T07:27:56;11.70;99.90
6978;DHT22;3529;53.244;10.414;2022-09-19T07:30:23;11.60;99.90
6978;DHT22;3529;53.244;10.414;2022-09-19T07:32:48;11.60;99.90
6978;DHT22;3529;53.244;10.414;2022-09-19T07:35:14;11.60;99.90
6978;DHT22;3529;53.244;10.414;2022-09-19T07:37:40;11.60;99.90
6978;DHT22;3529;53.244;10.414;2022-09-19T07:40:06;11.70;99.90
6978;DHT22;3529;53.244;10.414;2022-09-19T07:42:31;11.70;99.90
6978;DHT22;3529;53.244;10.414;2022-09-19T07:44:57;11.80;99.90
6978;DHT22;3529;53.244;10.414;2022-09-19T07:47:22;11.80;99.90
6978;DHT22;3529;53.244;10.414;2022-09-19T07:49:54;11.90;99.90
6978;DHT22;3529;53.244;10.414;2022-09-19T07:52:20;12.00;99.90
6978;DHT22;3529;53.244;10.414;2022-09-19T07:54:48;12.10;99.90
6978;DHT22;3529;53.244;10.414;2022-09-19T07:57:14;12.20;99.90
6978;DHT22;3529;53.244;10.414;2022-09-19T07:59:40;12.30;99.90
6978;DHT22;3529;53.244;10.414;2022-09-19T08:02:08;12.40;99.90
6978;DHT22;3529;53.244;10.414;2022-09-19T08:04:34;12.40;99.90
6978;DHT22;3529;53.244;10.414;2022-09-19T08:06:59;12.50;99.90
6978;DHT22;3529;53.244;10.414;2022-09-19T08:09:26;12.60;99.90
6978;DHT22;3529;53.244;10.414;2022-09-19T08:11:51;12.70;99.90
6978;DHT22;3529;53.244;10.414;2022-09-19T08:14:17;12.80;99.90
6978;DHT22;3529;53.244;10.414;2022-09-19T08:16:42;12.90;99.90
6978;DHT22;3529;53.244;10.414;2022-09-19T08:19:09;13.10;99.90
6978;DHT22;3529;53.244;10.414;2022-09-19T08:21:34;13.20;99.90
6978;DHT22;3529;53.244;10.414;2022-09-19T08:24:00;13.30;99.90
6978;DHT22;3529;53.244;10.414;2022-09-19T08:26:26;13.30;99.90
6978;DHT22;3529;53.244;10.414;2022-09-19T08:28:51;13.40;99.90
6978;DHT22;3529;53.244;10.414;2022-09-19T08:31:18;13.50;99.90
6978;DHT22;3529;53.244;10.414;2022-09-19T08:33:43;13.60;99.90
6978;DHT22;3529;53.244;10.414;2022-09-19T08:36:10;13.90;99.90
6978;DHT22;3529;53.244;10.414;2022-09-19T08:38:36;14.10;99.90
6978;DHT22;3529;53.244;10.414;2022-09-19T08:43:59;14.60;99.90
6978;DHT22;3529;53.244;10.414;2022-09-19T08:46:45;14.70;99.90
6978;DHT22;3529;53.244;10.414;2022-09-19T08:49:20;14.90;99.90
6978;DHT22;3529;53.244;10.414;2022-09-19T08:52:00;15.00;99.90
6978;DHT22;3529;53.244;10.414;2022-09-19T08:54:41;15.10;99.90
6978;DHT22;3529;53.244;10.414;2022-09-19T08:57:38;15.10;99.90
6978;DHT22;3529;53.244;10.414;2022-09-19T09:00:07;15.20;99.90
6978;DHT22;3529;53.244;10.414;2022-09-19T09:02:45;15.20;99.90
6978;DHT22;3529;53.244;10.414;2022-09-19T09:05:18;15.10;99.90
6978;DHT22;3529;53.244;10.414;2022-09-19T09:08:00;15.30;99.90
6978;DHT22;3529;53.244;10.414;2022-09-19T09:10:51;15.40;99.90
6978;DHT22;3529;53.244;10.414;2022-09-19T09:13:32;15.60;99.90
6978;DHT22;3529;53.244;10.414;2022-09-19T09:16:21;15.60;99.90
6978;DHT22;3529;53.244;10.414;2022-09-19T09:19:19;15.50;99.90
6978;DHT22;3529;53.244;10.414;2022-09-19T09:24:35;15.40;99.90
6978;DHT22;3529;53.244;10.414;2022-09-19T09:27:05;15.40;99.90
6978;DHT22;3529;53.244;10.414;2022-09-19T09:29:42;15.50;99.90
6978;DHT22;3529;53.244;10.414;2022-09-19T09:34:49;15.90;99.90
6978;DHT22;3529;53.244;10.414;2022-09-19T09:37:22;15.90;99.90
6978;DHT22;3529;53.244;10.414;2022-09-19T09:40:00;16.00;99.90
6978;DHT22;3529;53.244;10.414;2022-09-19T09:48:04;19.00;99.90
6978;DHT22;3529;53.244;10.414;2022-09-19T09:59:06;19.90;99.90
6978;DHT22;3529;53.244;10.414;2022-09-19T10:01:52;20.10;99.90
6978;DHT22;3529;53.244;10.414;2022-09-19T10:04:53;20.30;99.90
6978;DHT22;3529;53.244;10.414;2022-09-19T10:10:00;20.90;99.90
6978;DHT22;3529;53.244;10.414;2022-09-19T10:12:27;20.40;99.90
6978;DHT22;3529;53.244;10.414;2022-09-19T10:14:58;20.80;99.90
6978;DHT22;3529;53.244;10.414;2022-09-19T10:17:28;21.30;99.90
6978;DHT22;3529;53.244;10.414;2022-09-19T10:19:57;21.30;99.90
6978;DHT22;3529;53.244;10.414;2022-09-19T10:22:25;21.10;99.90
6978;DHT22;3529;53.244;10.414;2022-09-19T10:24:57;21.00;99.90
6978;DHT22;3529;53.244;10.414;2022-09-19T10:32:42;19.90;99.90
6978;DHT22;3529;53.244;10.414;2022-09-19T10:35:34;19.50;99.90
6978;DHT22;3529;53.244;10.414;2022-09-19T10:38:05;18.90;99.90
6978;DHT22;3529;53.244;10.414;2022-09-19T10:40:35;18.10;99.90
6978;DHT22;3529;53.244;10.414;2022-09-19T10:43:01;17.00;99.90
6978;DHT22;3529;53.244;10.414;2022-09-19T10:45:31;16.10;99.90
6978;DHT22;3529;53.244;10.414;2022-09-19T10:48:22;15.40;99.90
6978;DHT22;3529;53.244;10.414;2022-09-19T10:50:52;14.90;99.90
6978;DHT22;3529;53.244;10.414;2022-09-19T10:53:29;14.70;99.90
6978;DHT22;3529;53.244;10.414;2022-09-19T10:56:02;14.60;99.90
6978;DHT22;3529;53.244;10.414;2022-09-19T10:58:30;14.80;99.90
6978;DHT22;3529;53.244;10.414;2022-09-19T11:01:03;14.90;99.90
6978;DHT22;3529;53.244;10.414;2022-09-19T11:03:34;15.10;99.90
6978;DHT22;3529;53.244;10.414;2022-09-19T11:06:13;15.50;99.90
6978;DHT22;3529;53.244;10.414;2022-09-19T11:08:48;16.00;99.90
6978;DHT22;3529;53.244;10.414;2022-09-19T11:11:21;16.30;99.90
6978;DHT22;3529;53.244;10.414;2022-09-19T11:14:16;16.70;99.90
6978;DHT22;3529;53.244;10.414;2022-09-19T11:32:00;15.90;99.90
6978;DHT22;3529;53.244;10.414;2022-09-19T11:45:55;15.90;99.90
6978;DHT22;3529;53.244;10.414;2022-09-19T11:48:34;15.70;99.90
6978;DHT22;3529;53.244;10.414;2022-09-19T11:51:19;15.50;99.90
6978;DHT22;3529;53.244;10.414;2022-09-19T11:54:14;15.30;99.90
6978;DHT22;3529;53.244;10.414;2022-09-19T12:07:28;15.90;99.90
6978;DHT22;3529;53.244;10.414;2022-09-19T12:12:29;18.00;99.90
6978;DHT22;3529;53.244;10.414;2022-09-19T12:15:19;18.40;99.90
6978;DHT22;3529;53.244;10.414;2022-09-19T12:18:26;18.20;99.90
6978;DHT22;3529;53.244;10.414;2022-09-19T12:20:47;18.30;99.90
6978;DHT22;3529;53.244;10.414;2022-09-19T12:26:26;19.80;99.90
6978;DHT22;3529;53.244;10.414;2022-09-19T12:29:03;20.40;99.90
6978;DHT22;3529;53.244;10.414;2022-09-19T12:31:34;20.40;99.90
6978;DHT22;3529;53.244;10.414;2022-09-19T12:34:10;20.00;99.90
6978;DHT22;3529;53.244;10.414;2022-09-19T12:37:12;19.50;99.90
6978;DHT22;3529;53.244;10.414;2022-09-19T12:39:47;19.00;99.90
6978;DHT22;3529;53.244;10.414;2022-09-19T12:42:26;18.60;99.90
6978;DHT22;3529;53.244;10.414;2022-09-19T12:45:09;18.30;99.90
6978;DHT22;3529;53.244;10.414;2022-09-19T12:53:22;18.90;99.90
6978;DHT22;3529;53.244;10.414;2022-09-19T12:56:05;19.00;99.90
6978;DHT22;3529;53.244;10.414;2022-09-19T12:58:38;18.70;99.90
6978;DHT22;3529;53.244;10.414;2022-09-19T13:01:22;18.30;99.90
6978;DHT22;3529;53.244;10.414;2022-09-19T13:06:49;17.30;99.90
6978;DHT22;3529;53.244;10.414;2022-09-19T13:09:27;16.90;99.90
6978;DHT22;3529;53.244;10.414;2022-09-19T13:11:58;16.60;99.90
6978;DHT22;3529;53.244;10.414;2022-09-19T13:14:57;16.20;99.90
6978;DHT22;3529;53.244;10.414;2022-09-19T13:17:25;15.80;99.90
6978;DHT22;3529;53.244;10.414;2022-09-19T13:20:20;15.40;99.90
6978;DHT22;3529;53.244;10.414;2022-09-19T13:23:15;14.90;99.90
6978;DHT22;3529;53.244;10.414;2022-09-19T13:28:49;14.20;99.90
6978;DHT22;3529;53.244;10.414;2022-09-19T13:31:16;13.90;99.90
6978;DHT22;3529;53.244;10.414;2022-09-19T13:33:50;13.50;99.90
6978;DHT22;3529;53.244;10.414;2022-09-19T13:36:38;13.10;99.90
6978;DHT22;3529;53.244;10.414;2022-09-19T13:42:15;12.30;99.90
6978;DHT22;3529;53.244;10.414;2022-09-19T13:44:48;11.90;99.90
6978;DHT22;3529;53.244;10.414;2022-09-19T13:47:24;11.50;99.90
6978;DHT22;3529;53.244;10.414;2022-09-19T13:52:36;11.10;99.90
6978;DHT22;3529;53.244;10.414;2022-09-19T13:57:40;10.90;99.90
6978;DHT22;3529;53.244;10.414;2022-09-19T14:00:11;10.90;99.90
6978;DHT22;3529;53.244;10.414;2022-09-19T14:03:03;10.90;99.90
6978;DHT22;3529;53.244;10.414;2022-09-19T14:05:33;10.90;99.90
6978;DHT22;3529;53.244;10.414;2022-09-19T14:08:01;11.00;99.90
6978;DHT22;3529;53.244;10.414;2022-09-19T14:10:48;11.10;99.90
6978;DHT22;3529;53.244;10.414;2022-09-19T14:18:51;11.40;99.90
6978;DHT22;3529;53.244;10.414;2022-09-19T14:24:05;11.60;99.90
6978;DHT22;3529;53.244;10.414;2022-09-19T14:27:03;11.70;99.90
6978;DHT22;3529;53.244;10.414;2022-09-19T14:29:48;11.80;99.90
6978;DHT22;3529;53.244;10.414;2022-09-19T14:41:11;11.50;99.90
6978;DHT22;3529;53.244;10.414;2022-09-19T14:44:20;11.40;99.90
6978;DHT22;3529;53.244;10.414;2022-09-19T14:46:58;11.30;99.90
6978;DHT22;3529;53.244;10.414;2022-09-19T14:49:51;11.30;99.90
6978;DHT22;3529;53.244;10.414;2022-09-19T14:52:24;11.30;99.90
6978;DHT22;3529;53.244;10.414;2022-09-19T14:55:13;11.30;99.90
6978;DHT22;3529;53.244;10.414;2022-09-19T14:57:45;11.30;99.90
6978;DHT22;3529;53.244;10.414;2022-09-19T15:00:32;11.30;99.90
6978;DHT22;3529;53.244;10.414;2022-09-19T15:03:09;11.40;99.90
6978;DHT22;3529;53.244;10.414;2022-09-19T15:05:35;11.40;99.90
6978;DHT22;3529;53.244;10.414;2022-09-19T15:08:30;11.40;99.90
6978;DHT22;3529;53.244;10.414;2022-09-19T15:11:00;11.50;99.90
6978;DHT22;3529;53.244;10.414;2022-09-19T15:13:27;11.70;99.90
6978;DHT22;3529;53.244;10.414;2022-09-19T15:16:00;11.90;99.90
6978;DHT22;3529;53.244;10.414;2022-09-19T15:21:01;12.50;99.90
6978;DHT22;3529;53.244;10.414;2022-09-19T15:23:31;12.70;99.90
6978;DHT22;3529;53.244;10.414;2022-09-19T15:26:00;12.90;99.90
6978;DHT22;3529;53.244;10.414;2022-09-19T15:28:28;13.00;99.90
6978;DHT22;3529;53.244;10.414;2022-09-19T15:30:57;13.10;99.90
6978;DHT22;3529;53.244;10.414;2022-09-19T15:33:27;13.20;99.90
6978;DHT22;3529;53.244;10.414;2022-09-19T15:35:54;13.20;99.90
6978;DHT22;3529;53.244;10.414;2022-09-19T15:38:34;13.10;99.90
6978;DHT22;3529;53.244;10.414;2022-09-19T15:41:07;13.10;99.90
6978;DHT22;3529;53.244;10.414;2022-09-19T15:43:35;13.10;99.90
6978;DHT22;3529;53.244;10.414;2022-09-19T15:48:59;13.20;99.90
6978;DHT22;3529;53.244;10.414;2022-09-19T15:51:33;13.10;99.90
6978;DHT22;3529;53.244;10.414;2022-09-19T15:54:00;13.00;99.90
6978;DHT22;3529;53.244;10.414;2022-09-19T15:56:26;12.90;99.90
6978;DHT22;3529;53.244;10.414;2022-09-19T15:58:57;12.80;99.90
6978;DHT22;3529;53.244;10.414;2022-09-19T16:01:31;12.80;99.90
6978;DHT22;3529;53.244;10.414;2022-09-19T16:06:58;12.80;99.90
6978;DHT22;3529;53.244;10.414;2022-09-19T16:09:46;12.80;99.90
6978;DHT22;3529;53.244;10.414;2022-09-19T16:14:56;12.80;99.90
6978;DHT22;3529;53.244;10.414;2022-09-19T16:17:22;12.80;99.90
6978;DHT22;3529;53.244;10.414;2022-09-19T16:19:49;12.80;99.90
6978;DHT22;3529;53.244;10.414;2022-09-19T16:22:19;12.80;99.90
6978;DHT22;3529;53.244;10.414;2022-09-19T16:24:51;12.70;99.90
6978;DHT22;3529;53.244;10.414;2022-09-19T16:27:26;12.70;99.90
6978;DHT22;3529;53.244;10.414;2022-09-19T16:29:54;12.60;99.90
6978;DHT22;3529;53.244;10.414;2022-09-19T16:32:21;12.60;99.90
6978;DHT22;3529;53.244;10.414;2022-09-19T16:34:54;12.60;99.90
6978;DHT22;3529;53.244;10.414;2022-09-19T16:37:29;12.60;99.90
6978;DHT22;3529;53.244;10.414;2022-09-19T16:39:56;12.60;99.90
6978;DHT22;3529;53.244;10.414;2022-09-19T16:42:28;12.60;99.90
6978;DHT22;3529;53.244;10.414;2022-09-19T16:45:18;12.60;99.90
6978;DHT22;3529;53.244;10.414;2022-09-19T16:47:46;12.60;99.90
6978;DHT22;3529;53.244;10.414;2022-09-19T16:50:14;12.40;99.90
6978;DHT22;3529;53.244;10.414;2022-09-19T16:52:43;12.30;99.90
6978;DHT22;3529;53.244;10.414;2022-09-19T16:57:48;12.10;99.90
6978;DHT22;3529;53.244;10.414;2022-09-19T17:00:15;11.90;99.90
6978;DHT22;3529;53.244;10.414;2022-09-19T17:02:40;11.80;99.90
6978;DHT22;3529;53.244;10.414;2022-09-19T17:05:33;11.80;99.90
6978;DHT22;3529;53.244;10.414;2022-09-19T17:08:01;11.60;99.90
6978;DHT22;3529;53.244;10.414;2022-09-19T17:10:28;11.50;99.90
6978;DHT22;3529;53.244;10.414;2022-09-19T17:12:54;11.30;99.90
6978;DHT22;3529;53.244;10.414;2022-09-19T17:17:59;11.00;99.90
6978;DHT22;3529;53.244;10.414;2022-09-19T17:20:25;10.90;99.90
6978;DHT22;3529;53.244;10.414;2022-09-19T17:22:51;10.70;99.90
6978;DHT22;3529;53.244;10.414;2022-09-19T17:25:43;10.60;99.90
6978;DHT22;3529;53.244;10.414;2022-09-19T17:28:11;10.60;99.90
6978;DHT22;3529;53.244;10.414;2022-09-19T17:30:38;10.50;99.90
6978;DHT22;3529;53.244;10.414;2022-09-19T17:33:04;10.40;99.90
6978;DHT22;3529;53.244;10.414;2022-09-19T17:35:30;10.40;99.90
6978;DHT22;3529;53.244;10.414;2022-09-19T17:37:56;10.30;99.90
6978;DHT22;3529;53.244;10.414;2022-09-19T17:40:22;10.20;99.90
6978;DHT22;3529;53.244;10.414;2022-09-19T17:42:48;10.30;99.90
6978;DHT22;3529;53.244;10.414;2022-09-19T17:45:17;10.30;99.90
6978;DHT22;3529;53.244;10.414;2022-09-19T17:47:43;10.30;99.90
6978;DHT22;3529;53.244;10.414;2022-09-19T17:50:09;10.40;99.90
6978;DHT22;3529;53.244;10.414;2022-09-19T17:52:37;10.40;99.90
6978;DHT22;3529;53.244;10.414;2022-09-19T17:55:03;10.50;99.90
6978;DHT22;3529;53.244;10.414;2022-09-19T17:57:29;10.50;99.90
6978;DHT22;3529;53.244;10.414;2022-09-19T17:59:55;10.50;99.90
6978;DHT22;3529;53.244;10.414;2022-09-19T18:02:20;10.60;99.90
6978;DHT22;3529;53.244;10.414;2022-09-19T18:05:05;10.50;99.90
6978;DHT22;3529;53.244;10.414;2022-09-19T18:07:31;10.50;99.90
6978;DHT22;3529;53.244;10.414;2022-09-19T18:09:57;10.40;99.90
6978;DHT22;3529;53.244;10.414;2022-09-19T18:12:23;10.30;99.90
6978;DHT22;3529;53.244;10.414;2022-09-19T18:14:50;10.20;99.90
6978;DHT22;3529;53.244;10.414;2022-09-19T18:17:16;10.10;99.90
6978;DHT22;3529;53.244;10.414;2022-09-19T18:19:48;10.10;99.90
6978;DHT22;3529;53.244;10.414;2022-09-19T18:22:13;10.00;99.90
6978;DHT22;3529;53.244;10.414;2022-09-19T18:24:39;10.00;99.90
6978;DHT22;3529;53.244;10.414;2022-09-19T18:27:06;10.00;99.90
6978;DHT22;3529;53.244;10.414;2022-09-19T18:29:32;9.90;99.90
6978;DHT22;3529;53.244;10.414;2022-09-19T18:31:59;9.90;99.90
6978;DHT22;3529;53.244;10.414;2022-09-19T18:34:25;9.80;99.90
6978;DHT22;3529;53.244;10.414;2022-09-19T18:36:50;9.80;99.90
6978;DHT22;3529;53.244;10.414;2022-09-19T18:39:16;9.80;99.90
6978;DHT22;3529;53.244;10.414;2022-09-19T18:41:41;9.80;99.90
6978;DHT22;3529;53.244;10.414;2022-09-19T18:44:07;9.80;99.90
6978;DHT22;3529;53.244;10.414;2022-09-19T18:46:33;9.90;99.90
6978;DHT22;3529;53.244;10.414;2022-09-19T18:48:58;10.00;99.90
6978;DHT22;3529;53.244;10.414;2022-09-19T18:51:26;10.00;99.90
6978;DHT22;3529;53.244;10.414;2022-09-19T18:56:19;10.00;99.90
6978;DHT22;3529;53.244;10.414;2022-09-19T18:58:49;10.00;99.90
6978;DHT22;3529;53.244;10.414;2022-09-19T19:01:16;10.10;99.90
6978;DHT22;3529;53.244;10.414;2022-09-19T19:03:49;10.10;99.90
6978;DHT22;3529;53.244;10.414;2022-09-19T19:06:14;10.10;99.90
6978;DHT22;3529;53.244;10.414;2022-09-19T19:08:41;10.10;99.90
6978;DHT22;3529;53.244;10.414;2022-09-19T19:11:13;10.10;99.90
6978;DHT22;3529;53.244;10.414;2022-09-19T19:13:39;10.10;99.90
6978;DHT22;3529;53.244;10.414;2022-09-19T19:16:08;10.10;99.90
6978;DHT22;3529;53.244;10.414;2022-09-19T19:18:34;10.10;99.90
6978;DHT22;3529;53.244;10.414;2022-09-19T19:21:07;10.10;99.90
6978;DHT22;3529;53.244;10.414;2022-09-19T19:23:34;10.10;99.90
6978;DHT22;3529;53.244;10.414;2022-09-19T19:26:00;10.10;99.90
6978;DHT22;3529;53.244;10.414;2022-09-19T19:28:27;10.10;99.90
6978;DHT22;3529;53.244;10.414;2022-09-19T19:30:53;10.10;99.90
6978;DHT22;3529;53.244;10.414;2022-09-19T19:33:20;10.10;99.90
6978;DHT22;3529;53.244;10.414;2022-09-19T19:36:10;10.10;99.90
6978;DHT22;3529;53.244;10.414;2022-09-19T19:38:38;10.00;99.90
6978;DHT22;3529;53.244;10.414;2022-09-19T19:41:10;10.00;99.90
6978;DHT22;3529;53.244;10.414;2022-09-19T19:43:36;10.00;99.90
6978;DHT22;3529;53.244;10.414;2022-09-19T19:46:02;10.00;99.90
6978;DHT22;3529;53.244;10.414;2022-09-19T19:50:56;10.00;99.90
6978;DHT22;3529;53.244;10.414;2022-09-19T19:53:23;9.90;99.90
6978;DHT22;3529;53.244;10.414;2022-09-19T19:55:49;9.90;99.90
6978;DHT22;3529;53.244;10.414;2022-09-19T19:58:19;9.90;99.90
6978;DHT22;3529;53.244;10.414;2022-09-19T20:00:45;9.90;99.90
6978;DHT22;3529;53.244;10.414;2022-09-19T20:03:12;9.80;99.90
6978;DHT22;3529;53.244;10.414;2022-09-19T20:05:45;9.80;99.90
6978;DHT22;3529;53.244;10.414;2022-09-19T20:08:11;9.80;99.90
6978;DHT22;3529;53.244;10.414;2022-09-19T20:10:36;9.80;99.90
6978;DHT22;3529;53.244;10.414;2022-09-19T20:13:02;9.80;99.90
6978;DHT22;3529;53.244;10.414;2022-09-19T20:15:28;9.80;99.90
6978;DHT22;3529;53.244;10.414;2022-09-19T20:17:53;9.80;99.90
6978;DHT22;3529;53.244;10.414;2022-09-19T20:20:19;9.80;99.90
6978;DHT22;3529;53.244;10.414;2022-09-19T20:22:46;9.80;99.90
6978;DHT22;3529;53.244;10.414;2022-09-19T20:25:12;9.80;99.90
6978;DHT22;3529;53.244;10.414;2022-09-19T20:27:37;9.80;99.90
6978;DHT22;3529;53.244;10.414;2022-09-19T20:30:04;9.80;99.90
6978;DHT22;3529;53.244;10.414;2022-09-19T20:32:32;9.70;99.90
6978;DHT22;3529;53.244;10.414;2022-09-19T20:34:57;9.70;99.90
6978;DHT22;3529;53.244;10.414;2022-09-19T20:37:23;9.70;99.90
6978;DHT22;3529;53.244;10.414;2022-09-19T20:39:54;9.70;99.90
6978;DHT22;3529;53.244;10.414;2022-09-19T20:42:20;9.60;99.90
6978;DHT22;3529;53.244;10.414;2022-09-19T20:44:46;9.60;99.90
6978;DHT22;3529;53.244;10.414;2022-09-19T20:47:11;9.60;99.90
6978;DHT22;3529;53.244;10.414;2022-09-19T20:49:37;9.50;99.90
6978;DHT22;3529;53.244;10.414;2022-09-19T20:52:02;9.50;99.90
6978;DHT22;3529;53.244;10.414;2022-09-19T20:54:28;9.40;99.90